createdAt,value
2022-09-22T00:00:18.952Z,99809.91
2022-09-22T00:01:29.100Z,99810.84
2022-09-22T00:02:32.894Z,99810.28
2022-09-22T00:03:46.408Z,99809.31
2022-09-22T00:04:49.987Z,99809.59
2022-09-22T00:06:02.747Z,99807.13
2022-09-22T00:07:06.558Z,99817.38
2022-09-22T00:08:10.201Z,99809.69
2022-09-22T00:09:18.890Z,99798.31
2022-09-22T00:10:23.244Z,99796.78
2022-09-22T00:11:31.437Z,99816.69
2022-09-22T00:12:37.135Z,99813.19
2022-09-22T00:13:43.493Z,99804.28
2022-09-22T00:14:47.130Z,99809.78
2022-09-22T00:15:50.674Z,99807.97
2022-09-22T00:16:58.833Z,99810.63
2022-09-22T00:18:02.456Z,99808.94
2022-09-22T00:19:21.597Z,99807.13
2022-09-22T00:20:25.197Z,99809.78
2022-09-22T00:21:31.177Z,99795.28
2022-09-22T00:22:34.870Z,99813.41
2022-09-22T00:23:41.303Z,99807.22
2022-09-22T00:24:45.705Z,99799.53
2022-09-22T00:25:49.924Z,99810.84
2022-09-22T00:26:57.611Z,99812.66
2022-09-22T00:28:02.907Z,99807.41
2022-09-22T00:29:09.574Z,99817.00
2022-09-22T00:30:14.942Z,99795.28
2022-09-22T00:31:25.950Z,99817.84
2022-09-22T00:32:29.725Z,99812.53
2022-09-22T00:33:34.317Z,99814.25
2022-09-22T00:34:38.089Z,99818.59
2022-09-22T00:35:41.799Z,99805.69
2022-09-22T00:36:46.040Z,99813.41
2022-09-22T00:37:49.644Z,99805.69
2022-09-22T00:39:00.677Z,99808.94
2022-09-22T00:40:05.273Z,99809.88
2022-09-22T00:41:25.115Z,99813.88
2022-09-22T00:42:28.806Z,99811.22
2022-09-22T00:43:38.542Z,99813.88
2022-09-22T00:44:45.182Z,99812.06
2022-09-22T00:46:13.142Z,99812.16
2022-09-22T00:47:37.947Z,99812.16
2022-09-22T00:48:58.133Z,99809.03
2022-09-22T00:50:17.509Z,99807.31
2022-09-22T00:51:27.654Z,99815.84
2022-09-22T00:52:46.551Z,99817.53
2022-09-22T00:53:52.774Z,99818.50
2022-09-22T00:55:02.755Z,99820.97
2022-09-22T00:56:29.999Z,99809.50
2022-09-22T00:57:37.735Z,99828.75
2022-09-22T00:58:54.839Z,99823.34
2022-09-22T01:00:01.195Z,99824.28
2022-09-22T01:01:07.337Z,99830.38
2022-09-22T01:02:11.867Z,99819.81
2022-09-22T01:03:24.059Z,99821.63
2022-09-22T01:04:31.894Z,99819.66
2022-09-22T01:05:37.932Z,99824.13
2022-09-22T01:06:46.502Z,99817.00
2022-09-22T01:07:50.883Z,99824.88
2022-09-22T01:08:58.504Z,99810.84
2022-09-22T01:10:02.496Z,99817.66
2022-09-22T01:11:08.040Z,99820.31
2022-09-22T01:12:16.902Z,99826.41
2022-09-22T01:13:58.123Z,99818.34
2022-09-22T01:15:07.396Z,99828.13
2022-09-22T01:16:34.715Z,99825.34
2022-09-22T01:17:56.259Z,99824.41
2022-09-22T01:19:21.550Z,99821.75
2022-09-22T01:20:48.945Z,99826.00
2022-09-22T01:22:33.236Z,99819.00
2022-09-22T01:24:14.884Z,99828.66
2022-09-22T01:25:29.952Z,99828.75
2022-09-22T01:27:12.212Z,99820.91
2022-09-22T01:28:34.150Z,99823.66
2022-09-22T01:30:08.469Z,99821.75
2022-09-22T01:31:27.662Z,99826.22
2022-09-22T01:32:37.176Z,99823.56
2022-09-22T01:34:17.083Z,99827.06
2022-09-22T01:35:50.959Z,99826.97
2022-09-22T01:37:10.217Z,99825.16
2022-09-22T01:38:46.798Z,99817.38
2022-09-22T01:40:06.115Z,99819.94
2022-09-22T01:41:42.853Z,99819.09
2022-09-22T01:43:28.491Z,99819.00
2022-09-22T01:44:57.087Z,99825.25
2022-09-22T01:46:18.364Z,99817.56
2022-09-22T01:47:35.981Z,99819.34
2022-09-22T01:48:47.254Z,99814.91
2022-09-22T01:50:06.163Z,99824.31
2022-09-22T01:51:27.753Z,99814.63
2022-09-22T01:52:36.520Z,99809.59
2022-09-22T01:53:55.874Z,99810.16
2022-09-22T01:55:19.444Z,99807.63
2022-09-22T01:56:28.254Z,99811.03
2022-09-22T01:58:03.760Z,99805.06
2022-09-22T01:59:12.084Z,99798.91
2022-09-22T02:00:16.688Z,99793.00
2022-09-22T02:01:30.915Z,99804.97
2022-09-22T02:03:07.166Z,99805.91
2022-09-22T02:04:21.770Z,99804.28
2022-09-22T02:05:45.401Z,99800.75
2022-09-22T02:06:59.948Z,99794.13
2022-09-22T02:08:13.362Z,99794.97
2022-09-22T02:09:22.798Z,99802.88
2022-09-22T02:10:36.899Z,99801.34
2022-09-22T02:11:41.105Z,99798.03
2022-09-22T02:12:45.019Z,99799.63
2022-09-22T02:13:48.631Z,99802.50
2022-09-22T02:14:52.754Z,99799.06
2022-09-22T02:16:02.701Z,99804.19
2022-09-22T02:17:06.333Z,99798.19
2022-09-22T02:18:20.290Z,99813.19
2022-09-22T02:19:37.026Z,99804.38
2022-09-22T02:20:41.727Z,99794.91
2022-09-22T02:21:51.085Z,99811.56
2022-09-22T02:22:55.167Z,99808.06
2022-09-22T02:24:01.099Z,99804.56
2022-09-22T02:25:05.885Z,99799.63
2022-09-22T02:26:12.486Z,99804.66
2022-09-22T02:27:27.459Z,99801.16
2022-09-22T02:28:35.265Z,99795.34
2022-09-22T02:29:48.065Z,99805.78
2022-09-22T02:31:17.906Z,99802.53
2022-09-22T02:32:21.448Z,99806.94
2022-09-22T02:33:28.123Z,99809.66
2022-09-22T02:34:32.435Z,99812.41
2022-09-22T02:35:40.277Z,99807.19
2022-09-22T02:37:04.116Z,99808.25
2022-09-22T02:38:26.428Z,99802.94
2022-09-22T02:39:45.434Z,99793.69
2022-09-22T02:41:12.951Z,99803.97
2022-09-22T02:42:31.192Z,99801.66
2022-09-22T02:43:52.586Z,99800.66
2022-09-22T02:45:22.240Z,99804.25
2022-09-22T02:46:43.463Z,99805.09
2022-09-22T02:48:10.346Z,99810.41
2022-09-22T02:49:18.968Z,99794.75
2022-09-22T02:50:29.022Z,99805.16
2022-09-22T02:51:34.620Z,99805.25
2022-09-22T02:52:40.812Z,99797.50
2022-09-22T02:53:45.027Z,99805.47
2022-09-22T02:54:49.131Z,99795.09
2022-09-22T02:55:52.915Z,99803.75
2022-09-22T02:56:56.666Z,99804.72
2022-09-22T02:58:00.153Z,99808.38
2022-09-22T02:59:03.704Z,99811.22
2022-09-22T03:00:08.562Z,99801.63
2022-09-22T03:01:17.337Z,99806.00
2022-09-22T03:02:21.233Z,99813.97
2022-09-22T03:03:24.805Z,99813.19
2022-09-22T03:04:29.302Z,99805.22
2022-09-22T03:05:33.300Z,99805.41
2022-09-22T03:06:38.496Z,99808.72
2022-09-22T03:07:42.140Z,99817.53
2022-09-22T03:08:45.629Z,99806.09
2022-09-22T03:09:49.407Z,99813.03
2022-09-22T03:10:53.271Z,99809.53
2022-09-22T03:11:56.801Z,99815.47
2022-09-22T03:13:17.430Z,99807.53
2022-09-22T03:14:21.305Z,99798.63
2022-09-22T03:15:27.266Z,99801.09
2022-09-22T03:16:31.296Z,99815.13
2022-09-22T03:17:35.436Z,99814.94
2022-09-22T03:18:39.031Z,99810.47
2022-09-22T03:19:42.689Z,99809.63
2022-09-22T03:20:46.485Z,99815.63
2022-09-22T03:21:50.435Z,99814.66
2022-09-22T03:22:54.019Z,99817.97
2022-09-22T03:23:57.905Z,99811.75
2022-09-22T03:25:01.513Z,99810.00
2022-09-22T03:26:05.688Z,99809.09
2022-09-22T03:27:09.607Z,99813.25
2022-09-22T03:28:13.391Z,99803.69
2022-09-22T03:29:16.935Z,99801.19
2022-09-22T03:30:20.620Z,99808.16
2022-09-22T03:31:24.896Z,99810.81
2022-09-22T03:32:28.722Z,99809.94
2022-09-22T03:33:32.797Z,99808.16
2022-09-22T03:34:36.392Z,99805.59
2022-09-22T03:35:40.404Z,99804.72
2022-09-22T03:36:44.034Z,99804.72
2022-09-22T03:37:48.105Z,99805.50
2022-09-22T03:38:52.501Z,99813.56
2022-09-22T03:39:56.104Z,99812.59
2022-09-22T03:41:01.445Z,99800.66
2022-09-22T03:42:06.148Z,99813.47
2022-09-22T03:43:15.916Z,99808.41
2022-09-22T03:44:20.718Z,99814.22
2022-09-22T03:45:25.098Z,99815.06
2022-09-22T03:46:30.107Z,99819.31
2022-09-22T03:47:33.760Z,99817.63
2022-09-22T03:48:41.676Z,99816.59
2022-09-22T03:49:49.089Z,99823.41
2022-09-22T03:50:52.965Z,99814.00
2022-09-22T03:51:56.835Z,99816.31
2022-09-22T03:53:00.725Z,99818.00
2022-09-22T03:54:04.943Z,99813.66
2022-09-22T03:55:10.324Z,99821.63
2022-09-22T03:56:16.139Z,99824.09
2022-09-22T03:57:20.049Z,99818.78
2022-09-22T03:58:23.577Z,99819.75
2022-09-22T03:59:27.316Z,99811.84
2022-09-22T04:00:30.876Z,99823.06
2022-09-22T04:01:34.486Z,99815.09
2022-09-22T04:02:38.083Z,99810.81
2022-09-22T04:03:42.025Z,99808.81
2022-09-22T04:04:46.505Z,99815.78
2022-09-22T04:05:51.722Z,99814.03
2022-09-22T04:06:55.458Z,99810.47
2022-09-22T04:07:59.530Z,99820.88
2022-09-22T04:09:03.976Z,99812.91
2022-09-22T04:10:08.742Z,99826.00
2022-09-22T04:11:12.339Z,99817.19
2022-09-22T04:12:16.559Z,99813.97
2022-09-22T04:13:20.856Z,99828.47
2022-09-22T04:14:24.564Z,99816.16
2022-09-22T04:15:28.335Z,99819.75
2022-09-22T04:16:32.087Z,99822.22
2022-09-22T04:17:37.253Z,99821.16
2022-09-22T04:18:41.412Z,99817.56
2022-09-22T04:19:47.056Z,99818.44
2022-09-22T04:20:51.664Z,99812.34
2022-09-22T04:21:57.468Z,99822.69
2022-09-22T04:23:01.331Z,99817.38
2022-09-22T04:24:10.504Z,99815.59
2022-09-22T04:25:14.095Z,99817.38
2022-09-22T04:26:18.070Z,99815.59
2022-09-22T04:27:21.612Z,99818.13
2022-09-22T04:28:25.902Z,99819.00
2022-09-22T04:29:29.701Z,99811.97
2022-09-22T04:30:35.020Z,99818.81
2022-09-22T04:31:40.588Z,99816.22
2022-09-22T04:32:45.310Z,99819.66
2022-09-22T04:33:49.118Z,99821.47
2022-09-22T04:34:52.762Z,99814.34
2022-09-22T04:35:56.737Z,99814.47
2022-09-22T04:37:03.517Z,99815.47
2022-09-22T04:38:07.230Z,99824.03
2022-09-22T04:39:11.829Z,99812.66
2022-09-22T04:40:15.521Z,99821.28
2022-09-22T04:41:19.320Z,99827.53
2022-09-22T04:42:24.178Z,99824.69
2022-09-22T04:43:28.120Z,99825.63
2022-09-22T04:44:34.981Z,99826.41
2022-09-22T04:45:39.918Z,99822.69
2022-09-22T04:46:46.334Z,99821.94
2022-09-22T04:47:53.208Z,99826.22
2022-09-22T04:48:57.094Z,99825.47
2022-09-22T04:50:01.085Z,99821.84
2022-09-22T04:51:04.745Z,99822.69
2022-09-22T04:52:08.323Z,99822.59
2022-09-22T04:53:13.596Z,99823.56
2022-09-22T04:54:17.206Z,99828.88
2022-09-22T04:55:22.836Z,99823.56
2022-09-22T04:56:29.761Z,99824.50
2022-09-22T04:57:33.454Z,99831.53
2022-09-22T04:58:37.931Z,99835.03
2022-09-22T04:59:41.688Z,99831.53
2022-09-22T05:00:45.324Z,99828.00
2022-09-22T05:01:49.010Z,99826.31
2022-09-22T05:02:53.182Z,99827.06
2022-09-22T05:03:57.212Z,99828.19
2022-09-22T05:05:00.885Z,99817.50
2022-09-22T05:06:08.286Z,99820.22
2022-09-22T05:07:11.929Z,99818.25
2022-09-22T05:08:16.391Z,99823.44
2022-09-22T05:09:21.139Z,99828.66
2022-09-22T05:10:25.445Z,99830.38
2022-09-22T05:11:30.339Z,99831.16
2022-09-22T05:12:36.419Z,99825.94
2022-09-22T05:13:41.318Z,99833.81
2022-09-22T05:14:45.309Z,99821.53
2022-09-22T05:15:49.001Z,99821.66
2022-09-22T05:16:53.275Z,99820.63
2022-09-22T05:17:56.890Z,99833.81
2022-09-22T05:19:00.737Z,99833.91
2022-09-22T05:20:06.778Z,99821.00
2022-09-22T05:21:10.498Z,99835.88
2022-09-22T05:22:14.234Z,99834.84
2022-09-22T05:23:18.064Z,99837.50
2022-09-22T05:24:22.486Z,99840.06
2022-09-22T05:25:27.048Z,99834.84
2022-09-22T05:26:34.457Z,99825.47
2022-09-22T05:27:48.364Z,99835.88
2022-09-22T05:28:52.424Z,99832.66
2022-09-22T05:29:56.024Z,99834.56
2022-09-22T05:31:00.046Z,99834.28
2022-09-22T05:32:03.670Z,99837.31
2022-09-22T05:33:07.381Z,99834.75
2022-09-22T05:34:10.912Z,99841.09
2022-09-22T05:35:21.290Z,99840.59
2022-09-22T05:36:25.404Z,99832.56
2022-09-22T05:37:31.930Z,99843.19
2022-09-22T05:38:35.461Z,99836.06
2022-09-22T05:39:39.022Z,99841.28
2022-09-22T05:40:47.375Z,99843.84
2022-09-22T05:41:51.488Z,99842.78
2022-09-22T05:42:56.141Z,99848.09
2022-09-22T05:44:00.221Z,99846.13
2022-09-22T05:45:04.019Z,99851.34
2022-09-22T05:46:07.763Z,99834.66
2022-09-22T05:47:12.327Z,99834.56
2022-09-22T05:48:16.098Z,99849.28
2022-09-22T05:49:21.902Z,99845.66
2022-09-22T05:50:25.775Z,99838.53
2022-09-22T05:51:29.300Z,99845.47
2022-09-22T05:52:34.104Z,99836.63
2022-09-22T05:53:38.574Z,99837.41
2022-09-22T05:54:43.100Z,99844.81
2022-09-22T05:55:47.115Z,99844.59
2022-09-22T05:56:52.755Z,99852.41
2022-09-22T05:58:00.341Z,99845.38
2022-09-22T05:59:07.770Z,99846.13
2022-09-22T06:00:12.532Z,99853.53
2022-09-22T06:01:17.020Z,99853.34
2022-09-22T06:02:26.473Z,99859.22
2022-09-22T06:03:31.820Z,99849.53
2022-09-22T06:04:35.716Z,99850.38
2022-09-22T06:05:39.806Z,99852.75
2022-09-22T06:06:43.665Z,99840.44
2022-09-22T06:07:49.196Z,99852.19
2022-09-22T06:08:53.396Z,99859.97
2022-09-22T06:09:57.418Z,99853.69
2022-09-22T06:11:01.599Z,99856.03
2022-09-22T06:12:08.941Z,99861.69
2022-09-22T06:13:14.415Z,99865.72
2022-09-22T06:14:18.559Z,99858.44
2022-09-22T06:15:22.258Z,99862.56
2022-09-22T06:16:26.189Z,99863.53
2022-09-22T06:17:30.154Z,99858.13
2022-09-22T06:18:33.847Z,99859.91
2022-09-22T06:19:41.385Z,99859.91
2022-09-22T06:20:47.080Z,99867.47
2022-09-22T06:21:50.874Z,99850.84
2022-09-22T06:22:57.652Z,99851.03
2022-09-22T06:24:02.411Z,99868.38
2022-09-22T06:25:09.332Z,99868.38
2022-09-22T06:26:13.220Z,99866.59
2022-09-22T06:27:17.351Z,99854.91
2022-09-22T06:28:21.410Z,99850.63
2022-09-22T06:29:26.378Z,99851.19
2022-09-22T06:30:31.559Z,99864.66
2022-09-22T06:31:38.389Z,99856.69
2022-09-22T06:32:43.967Z,99860.94
2022-09-22T06:33:51.460Z,99870.34
2022-09-22T06:34:56.457Z,99862.34
2022-09-22T06:36:02.340Z,99854.38
2022-09-22T06:37:09.333Z,99857.47
2022-09-22T06:38:15.695Z,99866.88
2022-09-22T06:39:29.514Z,99868.97
2022-09-22T06:40:38.018Z,99867.47
2022-09-22T06:41:42.407Z,99870.13
2022-09-22T06:42:46.637Z,99858.94
2022-09-22T06:43:50.420Z,99856.28
2022-09-22T06:44:54.105Z,99856.69
2022-09-22T06:46:03.174Z,99868.63
2022-09-22T06:47:08.894Z,99869.38
2022-09-22T06:48:13.115Z,99873.63
2022-09-22T06:49:16.938Z,99870.69
2022-09-22T06:50:20.687Z,99855.66
2022-09-22T07:04:23.594Z,99875.78
2022-09-22T07:05:27.162Z,99879.44
2022-09-22T07:06:30.756Z,99886.56
2022-09-22T07:07:34.489Z,99871.94
2022-09-22T07:08:39.595Z,99878.16
2022-09-22T07:09:43.528Z,99882.69
2022-09-22T07:10:57.258Z,99882.69
2022-09-22T07:12:01.245Z,99891.47
2022-09-22T07:13:06.525Z,99875.66
2022-09-22T07:14:10.493Z,99875.47
2022-09-22T07:15:14.377Z,99873.66
2022-09-22T07:16:21.191Z,99878.03
2022-09-22T07:17:31.934Z,99886.13
2022-09-22T07:18:42.740Z,99885.56
2022-09-22T07:19:52.437Z,99888.34
2022-09-22T07:21:12.464Z,99888.63
2022-09-22T07:22:17.520Z,99869.34
2022-09-22T07:23:21.549Z,99874.34
2022-09-22T07:24:27.928Z,99888.81
2022-09-22T07:25:36.116Z,99886.56
2022-09-22T07:26:41.202Z,99876.31
2022-09-22T07:27:45.967Z,99874.16
2022-09-22T07:28:54.639Z,99875.72
2022-09-22T07:30:06.461Z,99862.31
2022-09-22T07:31:16.597Z,99866.00
2022-09-22T07:32:22.338Z,99868.19
2022-09-22T07:33:27.119Z,99870.03
2022-09-22T07:34:31.790Z,99864.66
2022-09-22T07:35:42.292Z,99866.25
2022-09-22T07:36:46.770Z,99871.72
2022-09-22T07:37:57.356Z,99858.09
2022-09-22T07:39:08.550Z,99846.63
2022-09-22T07:40:14.820Z,99871.41
2022-09-22T07:41:24.838Z,99871.50
2022-09-22T07:42:30.368Z,99867.22
2022-09-22T07:43:35.684Z,99870.59
2022-09-22T07:45:04.790Z,99877.59
2022-09-22T07:46:09.651Z,99874.84
2022-09-22T07:47:13.324Z,99869.22
2022-09-22T07:48:35.720Z,99869.34
2022-09-22T07:49:39.651Z,99870.44
2022-09-22T07:50:43.574Z,99857.97
2022-09-22T07:51:47.883Z,99865.75
2022-09-22T07:52:53.650Z,99863.53
2022-09-22T07:54:10.025Z,99874.22
2022-09-22T07:55:13.876Z,99867.63
2022-09-22T07:56:21.467Z,99877.00
2022-09-22T07:57:25.493Z,99875.19
2022-09-22T07:58:30.496Z,99874.13
2022-09-22T07:59:36.140Z,99876.78
2022-09-22T08:00:40.151Z,99878.03
2022-09-22T08:01:47.898Z,99883.13
2022-09-22T08:02:57.916Z,99874.16
2022-09-22T08:04:02.395Z,99879.06
2022-09-22T08:05:10.036Z,99869.22
2022-09-22T08:06:28.847Z,99882.50
2022-09-22T08:07:36.563Z,99879.72
2022-09-22T08:08:44.386Z,99883.28
2022-09-22T08:09:48.414Z,99860.47
2022-09-22T08:10:52.329Z,99860.19
2022-09-22T08:11:56.412Z,99891.94
2022-09-22T08:13:00.397Z,99876.13
2022-09-22T08:14:11.597Z,99896.78
2022-09-22T08:15:15.342Z,99885.47
2022-09-22T08:16:28.373Z,99877.06
2022-09-22T08:17:32.485Z,99889.13
2022-09-22T08:18:37.341Z,99866.59
2022-09-22T08:19:41.802Z,99874.97
2022-09-22T08:20:45.487Z,99865.13
2022-09-22T08:21:54.025Z,99881.00
2022-09-22T08:23:05.818Z,99878.66
2022-09-22T08:24:13.780Z,99889.72
2022-09-22T08:25:18.201Z,99882.56
2022-09-22T08:26:23.742Z,99886.06
2022-09-22T08:27:27.897Z,99866.09
2022-09-22T08:28:33.564Z,99878.38
2022-09-22T08:29:37.416Z,99888.19
2022-09-22T08:30:47.272Z,99879.94
2022-09-22T08:31:51.633Z,99885.06
2022-09-22T08:32:56.015Z,99897.25
2022-09-22T08:34:00.132Z,99875.75
2022-09-22T08:35:05.359Z,99890.97
2022-09-22T08:36:11.012Z,99883.19
2022-09-22T08:37:14.750Z,99891.19
2022-09-22T08:38:19.427Z,99892.16
2022-09-22T08:39:23.422Z,99880.72
2022-09-22T08:40:29.059Z,99883.25
2022-09-22T08:41:49.016Z,99886.91
2022-09-22T08:42:55.937Z,99873.88
2022-09-22T08:44:07.455Z,99879.19
2022-09-22T08:45:36.777Z,99880.75
2022-09-22T08:46:47.262Z,99876.72
2022-09-22T08:48:18.752Z,99876.19
2022-09-22T08:49:56.539Z,99884.84
2022-09-22T08:51:32.388Z,99880.47
2022-09-22T08:52:54.503Z,99880.69
2022-09-22T08:54:09.977Z,99872.81
2022-09-22T08:55:28.638Z,99871.31
2022-09-22T08:56:47.138Z,99877.75
2022-09-22T08:58:04.129Z,99883.16
2022-09-22T08:59:23.203Z,99875.00
2022-09-22T09:00:42.746Z,99877.81
2022-09-22T09:01:51.682Z,99866.13
2022-09-22T09:03:50.623Z,99864.16
2022-09-22T09:05:21.752Z,99865.13
2022-09-22T09:06:40.245Z,99846.31
2022-09-22T09:07:58.978Z,99853.09
2022-09-22T09:09:05.284Z,99840.22
2022-09-22T09:10:48.788Z,99850.16
2022-09-22T09:12:11.807Z,99840.13
2022-09-22T09:13:48.947Z,99835.88
2022-09-22T09:15:39.839Z,99831.94
2022-09-22T09:16:51.938Z,99834.31
2022-09-22T09:18:03.640Z,99834.06
2022-09-22T09:19:18.457Z,99825.09
2022-09-22T09:20:30.964Z,99827.97
2022-09-22T09:21:40.891Z,99825.88
2022-09-22T09:22:56.189Z,99828.53
2022-09-22T09:25:43.543Z,99835.66
2022-09-22T09:26:52.597Z,99834.41
2022-09-22T09:28:04.434Z,99829.41
2022-09-22T09:29:21.264Z,99824.75
2022-09-22T09:30:25.266Z,99806.78
2022-09-22T09:31:41.716Z,99842.78
2022-09-22T09:33:00.678Z,99843.47
2022-09-22T09:34:13.514Z,99825.56
2022-09-22T09:35:29.229Z,99829.25
2022-09-22T09:36:44.903Z,99839.13
2022-09-22T09:37:52.238Z,99833.00
2022-09-22T09:39:00.323Z,99827.19
2022-09-22T09:40:15.469Z,99840.75
2022-09-22T09:41:24.835Z,99820.41
2022-09-22T09:42:37.060Z,99843.13
2022-09-22T09:43:45.729Z,99822.63
2022-09-22T09:44:55.165Z,99835.03
2022-09-22T09:46:40.244Z,99836.50
2022-09-22T09:48:05.387Z,99815.19
2022-09-22T09:49:16.899Z,99818.38
2022-09-22T09:50:32.293Z,99828.88
2022-09-22T09:51:40.333Z,99846.28
2022-09-22T09:52:45.648Z,99840.22
2022-09-22T09:53:52.505Z,99844.28
2022-09-22T09:54:56.333Z,99845.53
2022-09-22T09:56:29.199Z,99839.25
2022-09-22T09:57:32.955Z,99838.25
2022-09-22T09:59:19.239Z,99843.47
2022-09-22T10:00:33.052Z,99848.53
2022-09-22T10:01:43.358Z,99848.75
2022-09-22T10:03:05.312Z,99856.31
2022-09-22T10:04:35.604Z,99852.97
2022-09-22T10:05:39.675Z,99821.16
2022-09-22T10:06:43.755Z,99833.03
2022-09-22T10:07:53.965Z,99851.06
2022-09-22T10:08:58.618Z,99829.75
2022-09-22T10:10:32.877Z,99845.25
2022-09-22T10:11:38.321Z,99845.03
2022-09-22T10:12:49.379Z,99844.56
2022-09-22T10:13:57.702Z,99834.63
2022-09-22T10:15:02.399Z,99844.63
2022-09-22T10:16:29.748Z,99846.72
2022-09-22T10:17:45.562Z,99847.56
2022-09-22T10:19:22.731Z,99835.31
2022-09-22T10:20:34.170Z,99852.38
2022-09-22T10:21:37.909Z,99819.19
2022-09-22T10:22:42.856Z,99851.78
2022-09-22T10:23:50.274Z,99845.81
2022-09-22T10:25:05.704Z,99848.00
2022-09-22T10:26:28.653Z,99834.72
2022-09-22T10:27:33.175Z,99834.81
2022-09-22T10:28:37.114Z,99838.31
2022-09-22T10:29:42.273Z,99837.94
2022-09-22T10:31:04.071Z,99837.00
2022-09-22T10:32:16.987Z,99839.69
2022-09-22T10:33:22.990Z,99833.63
2022-09-22T10:36:12.348Z,99818.16
2022-09-22T10:37:30.426Z,99826.25
2022-09-22T10:38:43.592Z,99814.47
2022-09-22T10:39:59.346Z,99817.50
2022-09-22T10:41:35.513Z,99792.97
2022-09-22T10:42:48.326Z,99824.78
2022-09-22T10:44:21.226Z,99818.72
2022-09-22T10:46:08.733Z,99822.38
2022-09-22T10:47:32.483Z,99813.03
2022-09-22T10:48:43.767Z,99788.31
2022-09-22T10:50:18.664Z,99819.63
2022-09-22T10:52:01.675Z,99806.47
2022-09-22T10:53:22.034Z,99822.41
2022-09-22T10:54:59.927Z,99815.63
2022-09-22T10:56:37.930Z,99817.69
2022-09-22T10:58:08.341Z,99825.66
2022-09-22T10:59:20.461Z,99823.63
2022-09-22T11:00:27.517Z,99822.44
2022-09-22T11:02:03.133Z,99835.38
2022-09-22T11:03:33.214Z,99841.22
2022-09-22T11:05:03.563Z,99853.81
2022-09-22T11:07:00.462Z,99858.72
2022-09-22T11:08:31.782Z,99853.94
2022-09-22T11:10:01.617Z,99849.06
2022-09-22T11:12:07.822Z,99826.59
2022-09-22T11:13:52.074Z,99837.41
2022-09-22T11:17:06.223Z,99841.59
2022-09-22T11:18:56.368Z,99841.56
2022-09-22T11:20:19.667Z,99840.78
2022-09-22T11:21:53.509Z,99839.81
2022-09-22T11:23:12.803Z,99846.97
2022-09-22T11:24:44.662Z,99842.41
2022-09-22T11:25:55.552Z,99842.72
2022-09-22T11:27:02.754Z,99847.09
2022-09-22T11:28:54.908Z,99844.66
2022-09-22T11:30:20.669Z,99829.50
2022-09-22T11:31:42.746Z,99831.81
2022-09-22T11:33:35.400Z,99830.41
2022-09-22T11:35:18.216Z,99825.38
2022-09-22T11:37:00.082Z,99820.53
2022-09-22T11:38:35.114Z,99829.47
2022-09-22T11:39:53.635Z,99813.19
2022-09-22T11:41:18.340Z,99823.81
2022-09-22T11:42:40.742Z,99805.78
2022-09-22T11:44:15.766Z,99818.47
2022-09-22T11:45:37.611Z,99809.78
2022-09-22T11:47:11.020Z,99815.75
2022-09-22T11:48:47.050Z,99816.50
2022-09-22T11:50:31.043Z,99811.50
2022-09-22T11:51:58.107Z,99811.16
2022-09-22T11:53:50.214Z,99816.50
2022-09-22T11:55:30.917Z,99827.81
2022-09-22T11:56:51.828Z,99825.47
2022-09-22T11:58:05.403Z,99816.47
2022-09-22T11:59:57.740Z,99822.16
2022-09-22T12:01:34.767Z,99806.25
2022-09-22T12:02:46.793Z,99822.88
2022-09-22T12:04:09.669Z,99821.31
2022-09-22T12:05:52.410Z,99830.75
2022-09-22T12:06:59.393Z,99820.41
2022-09-22T12:08:11.041Z,99812.75
2022-09-22T12:09:48.712Z,99795.94
2022-09-22T12:10:53.037Z,99808.50
2022-09-22T12:12:01.517Z,99818.97
2022-09-22T12:13:31.881Z,99817.13
2022-09-22T12:14:37.015Z,99814.22
2022-09-22T12:16:10.543Z,99817.63
2022-09-22T12:17:33.031Z,99812.41
2022-09-22T12:19:19.398Z,99819.81
2022-09-22T12:20:50.602Z,99815.72
2022-09-22T12:22:35.719Z,99815.50
2022-09-22T12:23:47.657Z,99817.78
2022-09-22T12:24:54.212Z,99807.56
2022-09-22T12:26:06.317Z,99803.59
2022-09-22T12:27:23.316Z,99807.69
2022-09-22T12:28:31.827Z,99786.41
2022-09-22T12:29:37.376Z,99780.47
2022-09-22T12:31:12.884Z,99803.94
2022-09-22T12:32:51.099Z,99807.22
2022-09-22T12:33:56.783Z,99776.56
2022-09-22T12:35:04.645Z,99804.31
2022-09-22T12:36:08.600Z,99766.78
2022-09-22T12:37:29.806Z,99784.63
2022-09-22T12:38:34.904Z,99790.56
2022-09-22T12:39:47.019Z,99767.38
2022-09-22T12:40:55.416Z,99765.66
2022-09-22T12:42:20.350Z,99782.47
2022-09-22T12:43:26.956Z,99789.75
2022-09-22T12:44:43.355Z,99787.81
2022-09-22T12:45:49.501Z,99794.38
2022-09-22T12:47:01.909Z,99785.38
2022-09-22T12:48:32.790Z,99787.09
2022-09-22T12:49:59.316Z,99787.09
2022-09-22T12:51:33.977Z,99787.94
2022-09-22T12:52:47.903Z,99793.28
2022-09-22T12:53:52.737Z,99783.69
2022-09-22T12:55:20.167Z,99789.63
2022-09-22T12:56:47.419Z,99761.31
2022-09-22T12:57:52.762Z,99785.13
2022-09-22T12:58:56.628Z,99772.88
2022-09-22T13:00:35.661Z,99780.75
2022-09-22T13:01:39.424Z,99750.63
2022-09-22T13:02:46.311Z,99766.69
2022-09-22T13:03:51.362Z,99750.28
2022-09-22T13:04:57.782Z,99771.41
2022-09-22T13:06:21.928Z,99768.50
2022-09-22T13:07:38.591Z,99781.63
2022-09-22T13:08:45.176Z,99771.53
2022-09-22T13:09:48.971Z,99752.84
2022-09-22T13:11:01.420Z,99755.38
2022-09-22T13:12:14.716Z,99774.94
2022-09-22T13:13:45.378Z,99775.19
2022-09-22T13:14:59.210Z,99770.06
2022-09-22T13:16:14.944Z,99766.69
2022-09-22T13:17:54.091Z,99740.66
2022-09-22T13:19:00.216Z,99741.00
2022-09-22T13:20:22.781Z,99758.13
2022-09-22T13:21:34.044Z,99763.75
2022-09-22T13:22:37.951Z,99742.78
2022-09-22T13:24:00.425Z,99770.50
2022-09-22T13:25:31.449Z,99767.22
2022-09-22T13:26:38.581Z,99770.50
2022-09-22T13:27:42.864Z,99764.03
2022-09-22T13:29:00.664Z,99760.97
2022-09-22T13:30:14.226Z,99768.03
2022-09-22T13:31:19.209Z,99760.13
2022-09-22T13:32:27.111Z,99754.66
2022-09-22T13:33:36.298Z,99750.06
2022-09-22T13:34:40.122Z,99743.50
2022-09-22T13:35:46.095Z,99769.00
2022-09-22T13:36:55.161Z,99751.00
2022-09-22T13:38:00.698Z,99750.78
2022-09-22T13:39:04.957Z,99766.34
2022-09-22T13:40:11.313Z,99738.91
2022-09-22T13:41:24.343Z,99759.31
2022-09-22T13:42:32.864Z,99768.91
2022-09-22T13:43:40.398Z,99749.38
2022-09-22T13:44:59.147Z,99756.66
2022-09-22T13:46:04.967Z,99766.13
2022-09-22T13:47:23.888Z,99750.47
2022-09-22T13:48:38.030Z,99743.19
2022-09-22T13:49:51.416Z,99761.53
2022-09-22T13:51:02.844Z,99758.41
2022-09-22T13:52:24.949Z,99755.00
2022-09-22T13:53:28.973Z,99769.34
2022-09-22T13:54:40.731Z,99761.09
2022-09-22T13:55:49.676Z,99769.13
2022-09-22T13:56:55.808Z,99755.28
2022-09-22T13:58:00.943Z,99762.78
2022-09-22T13:59:05.692Z,99764.88
2022-09-22T14:00:26.438Z,99734.22
2022-09-22T14:01:31.516Z,99735.34
2022-09-22T14:02:36.211Z,99734.59
2022-09-22T14:03:40.166Z,99748.81
2022-09-22T14:04:53.754Z,99736.19
2022-09-22T14:06:11.789Z,99763.75
2022-09-22T14:07:16.059Z,99742.84
2022-09-22T14:08:30.199Z,99736.28
2022-09-22T14:09:38.149Z,99763.13
2022-09-22T14:10:44.606Z,99748.41
2022-09-22T14:11:49.610Z,99751.09
2022-09-22T14:12:53.891Z,99746.72
2022-09-22T14:14:02.514Z,99751.34
2022-09-22T14:15:43.681Z,99749.53
2022-09-22T14:17:06.515Z,99753.03
2022-09-22T14:18:19.673Z,99754.84
2022-09-22T14:19:44.223Z,99745.75
2022-09-22T14:20:49.588Z,99756.19
2022-09-22T14:21:59.015Z,99734.78
2022-09-22T14:23:03.821Z,99758.25